createdAt,value
2023-05-21T00:00:53.894Z,60.60
2023-05-21T00:03:33.741Z,61.70
2023-05-21T00:06:03.155Z,67.78
2023-05-21T00:08:31.858Z,70.22
2023-05-21T00:11:00.470Z,66.80
2023-05-21T00:13:30.717Z,55.15
2023-05-21T00:15:59.154Z,50.63
2023-05-21T00:18:28.102Z,51.35
2023-05-21T00:20:56.476Z,42.15
2023-05-21T00:23:24.990Z,48.75
2023-05-21T00:25:54.198Z,43.88
2023-05-21T00:28:23.040Z,50.97
2023-05-21T00:30:52.109Z,48.85
2023-05-21T00:33:20.605Z,39.75
2023-05-21T00:35:49.108Z,42.10
2023-05-21T00:38:17.550Z,39.40
2023-05-21T00:40:46.069Z,43.90
2023-05-21T00:43:15.391Z,36.53
2023-05-21T00:45:44.012Z,46.92
2023-05-21T00:48:13.450Z,48.13
2023-05-21T00:50:43.024Z,42.65
2023-05-21T00:53:12.786Z,52.67
2023-05-21T00:55:41.404Z,42.42
2023-05-21T00:58:10.332Z,37.25
2023-05-21T01:00:38.897Z,34.25
2023-05-21T01:03:07.409Z,27.50
2023-05-21T01:05:36.961Z,29.77
2023-05-21T01:08:05.876Z,35.75
2023-05-21T01:10:34.739Z,26.33
2023-05-21T01:13:03.510Z,36.67
2023-05-21T01:15:31.995Z,26.00
2023-05-21T01:18:02.220Z,32.50
2023-05-21T01:20:31.069Z,27.65
2023-05-21T01:22:59.677Z,37.00
2023-05-21T01:25:28.598Z,38.88
2023-05-21T01:27:56.985Z,38.83
2023-05-21T01:30:26.041Z,36.08
2023-05-21T01:33:05.142Z,34.28
2023-05-21T01:35:45.169Z,33.85
2023-05-21T01:38:30.292Z,32.13
2023-05-21T01:41:04.478Z,34.53
2023-05-21T01:43:35.185Z,24.92
2023-05-21T01:46:04.526Z,32.25
2023-05-21T01:48:36.697Z,36.05
2023-05-21T01:51:06.952Z,28.58
2023-05-21T01:53:36.250Z,29.95
2023-05-21T01:56:04.611Z,34.08
2023-05-21T01:58:33.038Z,28.88
2023-05-21T02:01:01.652Z,27.35
2023-05-21T02:03:30.693Z,24.25
2023-05-21T02:05:59.425Z,22.65
2023-05-21T02:08:27.793Z,24.15
2023-05-21T02:10:56.332Z,30.77
2023-05-21T02:13:26.824Z,27.52
2023-05-21T02:15:55.842Z,26.35
2023-05-21T02:18:25.199Z,21.20
2023-05-21T02:20:53.565Z,28.15
2023-05-21T02:23:29.797Z,25.73
2023-05-21T02:25:58.159Z,28.15
2023-05-21T02:28:26.666Z,23.88
2023-05-21T02:30:54.879Z,20.63
2023-05-21T02:33:23.679Z,24.08
2023-05-21T02:35:52.359Z,20.13
2023-05-21T02:38:20.688Z,19.95
2023-05-21T02:40:49.982Z,20.27
2023-05-21T02:43:18.529Z,22.95
2023-05-21T02:45:47.573Z,21.20
2023-05-21T02:48:16.186Z,24.50
2023-05-21T02:50:45.414Z,23.33
2023-05-21T02:53:14.172Z,24.55
2023-05-21T02:55:42.440Z,23.80
2023-05-21T02:58:10.854Z,23.25
2023-05-21T03:00:39.278Z,23.58
2023-05-21T03:03:07.843Z,22.40
2023-05-21T03:05:37.708Z,19.77
2023-05-21T03:08:06.468Z,24.35
2023-05-21T03:10:34.853Z,22.52
2023-05-21T03:13:03.201Z,18.63
2023-05-21T03:15:31.621Z,19.55
2023-05-21T03:18:01.459Z,19.40
2023-05-21T03:20:29.801Z,13.70
2023-05-21T03:22:58.203Z,21.75
2023-05-21T03:25:26.766Z,16.50
2023-05-21T03:27:56.360Z,19.42
2023-05-21T03:30:44.896Z,17.77
2023-05-21T03:33:31.819Z,16.35
2023-05-21T03:36:02.695Z,13.15
2023-05-21T03:38:37.092Z,14.13
2023-05-21T03:41:07.341Z,18.50
2023-05-21T03:43:36.183Z,17.35
2023-05-21T03:46:05.089Z,16.15
2023-05-21T03:48:55.684Z,23.55
2023-05-21T03:51:25.859Z,20.10
2023-05-21T03:53:54.389Z,15.52
2023-05-21T03:56:23.377Z,24.27
2023-05-21T03:58:51.868Z,15.65
2023-05-21T04:01:20.904Z,18.75
2023-05-21T04:03:51.615Z,21.05
2023-05-21T04:08:51.981Z,23.65
2023-05-21T04:11:20.269Z,25.35
2023-05-21T04:13:49.619Z,25.05
2023-05-21T04:16:18.184Z,23.23
2023-05-21T04:18:47.725Z,20.52
2023-05-21T04:21:17.528Z,23.85
2023-05-21T04:23:46.078Z,24.98
2023-05-21T04:26:36.659Z,25.23
2023-05-21T04:29:05.387Z,20.65
2023-05-21T04:31:34.011Z,23.88
2023-05-21T04:34:04.333Z,14.77
2023-05-21T04:36:33.063Z,22.15
2023-05-21T04:39:01.857Z,19.95
2023-05-21T04:41:30.142Z,20.52
2023-05-21T04:43:58.811Z,20.48
2023-05-21T04:46:31.356Z,21.70
2023-05-21T04:49:05.153Z,21.55
2023-05-21T04:51:33.558Z,22.52
2023-05-21T04:54:03.262Z,20.02
2023-05-21T04:56:34.268Z,20.80
2023-05-21T04:59:05.284Z,17.88
2023-05-21T05:01:35.605Z,13.43
2023-05-21T05:04:03.911Z,15.23
2023-05-21T05:06:32.592Z,19.20
2023-05-21T05:09:01.155Z,18.35
2023-05-21T05:11:29.305Z,18.10
2023-05-21T05:13:58.362Z,18.30
2023-05-21T05:16:26.962Z,19.20
2023-05-21T05:18:57.831Z,22.58
2023-05-21T05:21:27.865Z,20.33
2023-05-21T05:23:56.594Z,16.60
2023-05-21T05:26:28.841Z,16.88
2023-05-21T05:28:57.992Z,15.60
2023-05-21T05:31:26.603Z,10.68
2023-05-21T05:33:55.578Z,14.90
2023-05-21T05:36:25.568Z,20.17
2023-05-21T05:38:53.943Z,12.18
2023-05-21T05:41:23.490Z,11.80
2023-05-21T05:43:52.180Z,11.18
2023-05-21T05:46:23.209Z,14.55
2023-05-21T05:48:52.940Z,15.73
2023-05-21T05:51:21.603Z,15.05
2023-05-21T05:53:49.748Z,15.32
2023-05-21T05:56:18.107Z,13.30
2023-05-21T05:58:46.478Z,15.85
2023-05-21T06:01:16.690Z,14.25
2023-05-21T06:03:45.716Z,16.38
2023-05-21T06:06:17.288Z,17.92
2023-05-21T06:08:46.074Z,18.92
2023-05-21T06:11:14.738Z,13.55
2023-05-21T06:13:43.694Z,16.27
2023-05-21T06:16:12.294Z,19.52
2023-05-21T06:18:40.818Z,17.13
2023-05-21T06:21:09.282Z,19.60
2023-05-21T06:23:37.726Z,21.58
2023-05-21T06:26:06.511Z,18.58
2023-05-21T06:28:34.867Z,23.40
2023-05-21T06:31:03.444Z,22.77
2023-05-21T06:33:33.403Z,33.92
2023-05-21T06:36:02.151Z,26.75
2023-05-21T06:38:30.946Z,28.17
2023-05-21T06:41:00.262Z,31.80
2023-05-21T06:43:43.048Z,30.85
2023-05-21T06:46:31.601Z,29.73
2023-05-21T06:49:00.048Z,23.08
2023-05-21T06:51:28.470Z,26.15
2023-05-21T06:53:57.127Z,24.55
2023-05-21T06:56:25.796Z,41.50
2023-05-21T06:58:56.070Z,40.42
2023-05-21T07:01:24.697Z,36.75
2023-05-21T07:03:52.922Z,30.20
2023-05-21T07:06:21.486Z,27.40
2023-05-21T07:08:49.948Z,35.20
2023-05-21T07:11:18.190Z,30.45
2023-05-21T07:13:47.442Z,29.33
2023-05-21T07:16:16.719Z,24.00
2023-05-21T07:18:45.397Z,30.67
2023-05-21T07:21:14.302Z,21.40
2023-05-21T07:23:42.915Z,21.17
2023-05-21T07:26:11.808Z,35.33
2023-05-21T07:28:40.264Z,30.98
2023-05-21T07:31:08.972Z,32.40
2023-05-21T07:33:42.299Z,25.60
2023-05-21T07:36:12.592Z,29.10
2023-05-21T07:38:41.877Z,19.98
2023-05-21T07:41:11.006Z,23.85
2023-05-21T07:43:40.677Z,24.50
2023-05-21T07:46:10.191Z,21.48
2023-05-21T07:48:38.518Z,29.77
2023-05-21T07:51:07.191Z,21.48
2023-05-21T07:53:35.839Z,23.83
2023-05-21T07:58:37.046Z,23.23
2023-05-21T08:01:05.490Z,21.65
2023-05-21T08:03:34.282Z,17.77
2023-05-21T08:06:03.903Z,19.88
2023-05-21T08:08:32.346Z,21.00
2023-05-21T08:11:01.140Z,17.33
2023-05-21T08:13:30.131Z,21.15
2023-05-21T08:15:58.487Z,24.23
2023-05-21T08:18:28.022Z,26.17
2023-05-21T08:20:58.064Z,23.10
2023-05-21T08:23:26.636Z,18.38
2023-05-21T08:25:57.076Z,21.33
2023-05-21T08:28:26.152Z,24.65
2023-05-21T08:30:55.534Z,14.82
2023-05-21T08:33:25.606Z,10.00
2023-05-21T08:35:54.237Z,12.63
2023-05-21T08:38:29.987Z,15.48
2023-05-21T08:41:14.539Z,11.02
2023-05-21T08:43:48.564Z,18.90
2023-05-21T08:46:21.592Z,13.93
2023-05-21T08:48:51.134Z,12.38
2023-05-21T08:51:19.767Z,14.40
2023-05-21T08:56:22.336Z,17.92
2023-05-21T08:58:55.595Z,10.20
2023-05-21T09:01:28.407Z,12.98
2023-05-21T09:04:19.029Z,12.18
2023-05-21T09:06:52.628Z,14.82
2023-05-21T09:09:44.854Z,10.17
2023-05-21T09:12:13.619Z,6.20
2023-05-21T09:14:43.777Z,9.00
2023-05-21T09:17:27.202Z,9.30
2023-05-21T09:20:11.097Z,12.02
2023-05-21T09:22:43.692Z,6.78
2023-05-21T09:25:13.955Z,12.25
2023-05-21T09:27:42.750Z,6.30
2023-05-21T09:30:13.261Z,8.05
2023-05-21T09:32:43.645Z,7.82
2023-05-21T09:35:14.424Z,5.10
2023-05-21T09:40:17.175Z,5.47
2023-05-21T09:42:51.843Z,6.18
2023-05-21T09:45:23.089Z,10.75
2023-05-21T09:50:28.783Z,8.98
2023-05-21T09:52:57.236Z,9.88
2023-05-21T09:55:27.143Z,9.30
2023-05-21T09:57:55.678Z,9.27
2023-05-21T10:00:29.145Z,10.90
2023-05-21T10:03:00.648Z,9.32
2023-05-21T10:05:31.112Z,6.15
2023-05-21T10:08:04.775Z,7.38
2023-05-21T10:10:33.680Z,8.13
2023-05-21T10:13:07.612Z,6.70
2023-05-21T10:15:50.218Z,11.45
2023-05-21T10:18:21.456Z,6.43
2023-05-21T10:20:50.653Z,8.30
2023-05-21T10:23:20.134Z,5.00
2023-05-21T10:25:49.900Z,4.13
2023-05-21T10:28:18.662Z,9.40
2023-05-21T10:30:47.480Z,5.57
2023-05-21T10:33:18.660Z,4.57
2023-05-21T10:35:48.445Z,4.40
2023-05-21T10:38:20.446Z,7.53
2023-05-21T10:43:44.581Z,5.38
2023-05-21T10:46:31.480Z,6.50
2023-05-21T10:48:59.921Z,10.55
2023-05-21T10:51:54.450Z,6.05
2023-05-21T10:54:47.418Z,5.70
2023-05-21T10:57:33.392Z,3.70
2023-05-21T11:00:02.606Z,5.70
2023-05-21T11:02:31.253Z,6.18
2023-05-21T11:05:01.065Z,10.98
2023-05-21T11:07:52.304Z,11.35
2023-05-21T11:10:41.196Z,8.32
2023-05-21T11:13:13.631Z,4.45
2023-05-21T11:16:00.080Z,4.90
2023-05-21T11:18:37.700Z,7.32
2023-05-21T11:21:07.615Z,7.60
2023-05-21T11:23:55.154Z,5.38
2023-05-21T11:26:30.122Z,4.32
2023-05-21T11:29:08.761Z,4.55
2023-05-21T11:31:37.972Z,2.75
2023-05-21T11:34:19.391Z,5.10
2023-05-21T11:36:49.045Z,3.90
2023-05-21T11:39:21.289Z,11.55
2023-05-21T11:42:04.317Z,10.43
2023-05-21T11:44:44.558Z,5.95
2023-05-21T11:47:20.442Z,7.40
2023-05-21T11:49:49.086Z,10.65
2023-05-21T11:52:17.434Z,14.35
2023-05-21T11:54:48.048Z,19.80
2023-05-21T11:57:17.058Z,11.60
2023-05-21T11:59:46.837Z,5.75
2023-05-21T12:02:24.443Z,13.43
2023-05-21T12:04:52.902Z,16.17
2023-05-21T12:07:21.634Z,8.18
2023-05-21T12:09:51.373Z,7.38
2023-05-21T12:12:21.579Z,3.35
2023-05-21T12:14:56.817Z,13.73
2023-05-21T12:17:26.785Z,12.57
2023-05-21T12:19:56.139Z,12.95
2023-05-21T12:22:25.772Z,11.35
2023-05-21T12:24:54.280Z,7.03
2023-05-21T12:27:23.413Z,11.25
2023-05-21T12:29:52.694Z,8.75
2023-05-21T12:32:22.190Z,10.40
2023-05-21T12:34:54.978Z,8.88
2023-05-21T12:37:25.620Z,9.02
2023-05-21T12:39:55.541Z,7.85
2023-05-21T12:42:27.554Z,6.15
2023-05-21T12:44:56.489Z,7.97
2023-05-21T12:47:26.328Z,8.65
2023-05-21T12:49:58.740Z,13.35
2023-05-21T12:52:27.769Z,11.27
2023-05-21T12:54:58.141Z,5.00
2023-05-21T12:57:28.488Z,7.63
2023-05-21T13:00:01.358Z,9.23
2023-05-21T13:02:34.152Z,7.35
2023-05-21T13:05:04.168Z,8.48
2023-05-21T13:07:34.848Z,13.73
2023-05-21T13:10:03.870Z,10.88
2023-05-21T13:12:33.524Z,16.05
2023-05-21T13:15:03.632Z,12.38
2023-05-21T13:17:32.489Z,12.25
2023-05-21T13:20:15.240Z,6.90
2023-05-21T13:22:46.044Z,12.70
2023-05-21T13:25:24.118Z,11.05
2023-05-21T13:27:53.858Z,10.45
2023-05-21T13:30:22.997Z,7.85
2023-05-21T13:32:51.660Z,14.77
2023-05-21T13:35:20.185Z,9.95
2023-05-21T13:37:48.645Z,13.48
2023-05-21T13:40:18.071Z,15.45
2023-05-21T13:42:48.304Z,14.48
2023-05-21T13:45:21.208Z,18.23
2023-05-21T13:47:50.014Z,10.45
2023-05-21T13:50:18.640Z,20.63
2023-05-21T13:52:47.088Z,16.50
2023-05-21T13:55:15.791Z,11.80
2023-05-21T13:57:48.556Z,32.85
2023-05-21T14:00:17.031Z,16.45
2023-05-21T14:02:45.975Z,8.55
2023-05-21T14:05:14.777Z,11.77
2023-05-21T14:07:43.435Z,11.60
2023-05-21T14:10:11.952Z,11.48
2023-05-21T14:12:42.006Z,15.68
2023-05-21T14:15:11.331Z,13.27
2023-05-21T14:17:39.593Z,8.80
2023-05-21T14:20:48.429Z,11.77
2023-05-21T14:23:16.870Z,16.98
2023-05-21T14:25:45.515Z,14.05
2023-05-21T14:28:16.654Z,9.82
2023-05-21T14:30:45.410Z,12.45
2023-05-21T14:33:13.871Z,108.05
2023-05-21T14:35:42.373Z,247.18
2023-05-21T14:38:11.586Z,57.85
2023-05-21T14:40:40.159Z,17.23
2023-05-21T14:43:08.835Z,16.38
2023-05-21T14:45:37.502Z,54.10
2023-05-21T14:48:06.231Z,27.67
2023-05-21T14:50:35.695Z,30.52
2023-05-21T14:53:11.270Z,29.77
2023-05-21T14:55:40.002Z,30.75
2023-05-21T14:58:09.096Z,53.55
2023-05-21T15:00:38.582Z,22.73
2023-05-21T15:03:07.639Z,18.65
2023-05-21T15:05:39.277Z,33.55
2023-05-21T15:10:49.779Z,15.73
2023-05-21T15:13:18.172Z,10.82
2023-05-21T15:15:46.540Z,9.93
2023-05-21T15:18:15.257Z,10.75
2023-05-21T15:20:43.489Z,11.75
2023-05-21T15:23:17.217Z,17.25
2023-05-21T15:25:46.748Z,17.15
2023-05-21T15:28:15.340Z,18.90
2023-05-21T15:30:43.670Z,24.58
2023-05-21T15:33:12.756Z,8.27
2023-05-21T15:35:42.346Z,14.55
2023-05-21T15:38:11.557Z,10.00
2023-05-21T15:40:41.001Z,18.33
2023-05-21T15:43:09.895Z,16.45
2023-05-21T15:45:38.807Z,17.23
2023-05-21T15:48:07.908Z,22.38
2023-05-21T15:50:36.685Z,14.73
2023-05-21T15:53:05.767Z,19.45
2023-05-21T15:55:34.753Z,20.20
2023-05-21T15:58:04.594Z,18.25
2023-05-21T16:00:33.310Z,13.35
2023-05-21T16:03:01.883Z,14.73
2023-05-21T16:05:30.386Z,18.95
2023-05-21T16:07:59.065Z,13.00
2023-05-21T16:10:27.405Z,21.30
2023-05-21T16:12:55.836Z,39.08
2023-05-21T16:15:24.463Z,25.17
2023-05-21T16:17:52.918Z,6.68
2023-05-21T16:20:21.528Z,61.67
2023-05-21T16:22:49.881Z,16.10
2023-05-21T16:25:18.319Z,24.13
2023-05-21T16:27:46.867Z,12.07
2023-05-21T16:30:15.491Z,9.23
2023-05-21T16:32:43.876Z,7.57
2023-05-21T16:35:14.194Z,15.43
2023-05-21T16:37:42.863Z,11.38
2023-05-21T16:40:11.730Z,14.30
2023-05-21T16:42:40.095Z,10.02
2023-05-21T16:45:09.190Z,9.63
2023-05-21T16:47:37.441Z,15.00
2023-05-21T16:50:06.478Z,9.18
2023-05-21T16:52:35.225Z,9.80
2023-05-21T16:55:03.493Z,16.50
2023-05-21T16:57:31.992Z,7.90
2023-05-21T17:00:00.440Z,5.53
2023-05-21T17:02:28.813Z,13.93
2023-05-21T17:04:57.546Z,7.53
2023-05-21T17:07:27.122Z,8.73
2023-05-21T17:11:31.861Z,9.75
2023-05-21T17:14:00.249Z,20.08
2023-05-21T17:16:28.684Z,14.77
2023-05-21T17:18:57.416Z,8.80
2023-05-21T17:21:32.422Z,12.45
2023-05-21T17:24:01.126Z,14.90
2023-05-21T17:26:29.488Z,7.82
2023-05-21T17:28:57.865Z,12.55
2023-05-21T17:31:26.322Z,23.90
2023-05-21T17:33:55.036Z,11.95
2023-05-21T17:36:23.318Z,14.73
2023-05-21T17:38:51.933Z,14.35
2023-05-21T17:41:20.378Z,23.30
2023-05-21T17:43:49.107Z,14.23
2023-05-21T17:46:17.445Z,14.90
2023-05-21T17:48:46.165Z,10.27
2023-05-21T17:51:14.500Z,16.45
2023-05-21T17:53:42.977Z,25.67
2023-05-21T17:56:11.171Z,18.13
2023-05-21T17:58:39.654Z,18.58
2023-05-21T18:01:08.020Z,33.42
2023-05-21T18:03:36.584Z,24.80
2023-05-21T18:06:06.455Z,17.13
2023-05-21T18:08:36.679Z,15.20
2023-05-21T18:11:05.120Z,25.00
2023-05-21T18:13:34.032Z,27.08
2023-05-21T18:16:02.545Z,21.58
2023-05-21T18:18:31.007Z,14.48
2023-05-21T18:20:59.466Z,14.43
2023-05-21T18:23:28.811Z,21.30
2023-05-21T18:25:57.464Z,19.95
2023-05-21T18:28:25.964Z,34.42
2023-05-21T18:30:54.363Z,19.27
2023-05-21T18:33:22.678Z,18.45
2023-05-21T18:35:51.578Z,14.48
2023-05-21T18:38:20.066Z,16.55
2023-05-21T18:40:48.816Z,18.92
2023-05-21T18:43:17.565Z,29.02
2023-05-21T18:45:47.975Z,18.02
2023-05-21T18:48:16.602Z,29.88
2023-05-21T18:50:45.031Z,17.38
2023-05-21T18:53:13.613Z,12.25
2023-05-21T18:55:42.693Z,19.35
2023-05-21T18:58:11.000Z,22.80
2023-05-21T19:00:39.724Z,58.75
2023-05-21T19:03:08.503Z,42.03
2023-05-21T19:05:36.871Z,32.85
2023-05-21T19:08:05.627Z,46.22
2023-05-21T19:10:34.178Z,34.03
2023-05-21T19:13:03.873Z,33.17
2023-05-21T19:15:34.114Z,45.58
2023-05-21T19:18:02.878Z,53.25
2023-05-21T19:20:31.181Z,38.63
2023-05-21T19:23:00.064Z,27.80
2023-05-21T19:25:28.370Z,34.17
2023-05-21T19:27:57.116Z,92.20
2023-05-21T19:30:25.743Z,78.68
2023-05-21T19:32:54.417Z,88.38
2023-05-21T19:35:22.806Z,117.32
2023-05-21T19:37:51.411Z,72.45
2023-05-21T19:40:19.685Z,56.45
2023-05-21T19:42:48.253Z,37.10
2023-05-21T19:45:16.858Z,36.25
2023-05-21T19:51:09.969Z,15.65
2023-05-21T19:53:38.751Z,21.25
2023-05-21T19:56:07.289Z,20.35
2023-05-21T19:58:35.798Z,15.75
2023-05-21T20:01:04.167Z,24.83
2023-05-21T20:03:32.616Z,24.40
2023-05-21T20:06:01.041Z,29.15
2023-05-21T20:08:29.377Z,39.17
2023-05-21T20:10:58.262Z,33.35
2023-05-21T20:13:27.016Z,65.10
2023-05-21T20:15:55.431Z,78.70
2023-05-21T20:18:24.021Z,242.45
2023-05-21T20:20:52.568Z,308.15
2023-05-21T20:23:20.759Z,162.98
2023-05-21T20:25:49.244Z,83.95
2023-05-21T20:28:17.768Z,69.53
2023-05-21T20:30:58.302Z,69.00
2023-05-21T20:33:28.317Z,65.70
2023-05-21T20:35:57.039Z,59.10
2023-05-21T20:38:25.848Z,49.72
2023-05-21T20:40:56.023Z,43.63
2023-05-21T20:43:24.877Z,35.78
2023-05-21T20:45:56.489Z,41.95
2023-05-21T20:48:24.973Z,41.50
2023-05-21T20:50:53.474Z,44.65
2023-05-21T20:53:22.128Z,45.08
2023-05-21T20:55:50.792Z,38.47
2023-05-21T20:58:19.472Z,66.13
2023-05-21T21:00:48.621Z,67.82
2023-05-21T21:03:18.016Z,72.45
2023-05-21T21:05:46.657Z,51.40
2023-05-21T21:08:15.093Z,32.92
2023-05-21T21:10:43.492Z,34.83
2023-05-21T21:13:12.050Z,31.52
2023-05-21T21:15:40.541Z,33.75
2023-05-21T21:18:09.137Z,38.88
2023-05-21T21:20:37.873Z,49.42
2023-05-21T21:23:06.497Z,47.67
2023-05-21T21:25:35.189Z,34.83
2023-05-21T21:28:03.577Z,28.98
2023-05-21T21:30:33.080Z,35.47
2023-05-21T21:33:01.894Z,42.20
2023-05-21T21:35:30.596Z,30.65
2023-05-21T21:37:59.126Z,34.47
2023-05-21T21:40:27.655Z,28.13
2023-05-21T21:42:56.186Z,36.42
2023-05-21T21:45:26.872Z,20.83
2023-05-21T21:47:55.700Z,27.50
2023-05-21T21:50:24.028Z,33.78
2023-05-21T21:52:52.826Z,25.10
2023-05-21T21:55:21.477Z,14.25
2023-05-21T21:57:50.408Z,14.43
2023-05-21T22:00:19.055Z,18.13
2023-05-21T22:02:47.669Z,19.27
2023-05-21T22:05:16.410Z,24.13
2023-05-21T22:07:45.593Z,24.40
2023-05-21T22:10:15.348Z,25.38
2023-05-21T22:12:45.738Z,33.40
2023-05-21T22:15:22.873Z,35.63
2023-05-21T22:17:51.484Z,26.88
2023-05-21T22:20:20.321Z,19.92
2023-05-21T22:22:50.593Z,25.95
2023-05-21T22:25:19.261Z,30.50
2023-05-21T22:27:47.767Z,31.00
2023-05-21T22:30:16.232Z,25.48
2023-05-21T22:32:44.655Z,37.55
2023-05-21T22:35:13.199Z,32.15
2023-05-21T22:37:42.791Z,37.85
2023-05-21T22:40:11.558Z,40.45
2023-05-21T22:42:39.953Z,45.88
2023-05-21T22:45:09.311Z,43.80
2023-05-21T22:47:38.340Z,45.42
2023-05-21T22:50:08.394Z,46.90
2023-05-21T22:52:38.071Z,52.08
2023-05-21T22:55:06.804Z,48.47
2023-05-21T22:57:35.151Z,46.67
2023-05-21T23:00:03.913Z,47.17
2023-05-21T23:02:32.666Z,49.70
2023-05-21T23:05:01.229Z,46.40
2023-05-21T23:07:29.812Z,45.38
2023-05-21T23:09:58.268Z,42.95
2023-05-21T23:12:27.330Z,46.35
2023-05-21T23:14:55.659Z,38.70
2023-05-21T23:17:25.312Z,54.22
2023-05-21T23:19:53.787Z,45.17
2023-05-21T23:22:22.506Z,36.58
2023-05-21T23:24:51.011Z,54.40
2023-05-21T23:27:21.808Z,46.92
2023-05-21T23:29:50.666Z,48.92
2023-05-21T23:32:19.155Z,42.22
2023-05-21T23:34:47.834Z,43.60
2023-05-21T23:37:16.334Z,40.30
2023-05-21T23:39:44.809Z,55.80
2023-05-21T23:42:13.512Z,38.22
2023-05-21T23:44:42.202Z,40.45
2023-05-21T23:47:10.913Z,37.20
2023-05-21T23:49:40.237Z,42.30
2023-05-21T23:52:09.434Z,42.22
2023-05-21T23:54:37.966Z,30.85
2023-05-21T23:57:06.764Z,36.80
2023-05-21T23:59:35.230Z,30.05
